Wind Gusting 00 knots
08
September 25, 2018 10:39 AM EDT
Present Weather: Mist
Weather Information
Wind Direction
  200 °
Wind Speed
  08 kt (9 mph)
Wind Gust
  00 kt (0 mph)
Altimeter
29.97 in
Visibility
5 SM
Temperature
21° C
70° F
Dewpoint
20° C
68° F
Humidity
94%
1hr Rain Fall
00.00 in.
24hr Rain Fall
00.70 in.
Sky Condition
Overcast @ 3,700 ft
Broken @ 2,600 ft
Broken @ 900 ft
IFR

METAR KONZ 251439Z AUTO 20008KT 5SM BR BKN009 BKN026 OVC037 21/20 A2997 RMK AO2 T02080202

FAA Disclaimer: The data displayed is for advisory purposes only and is not to be used for flight planning or operations.